createdAt,value
2023-02-05T00:01:43.990Z,103764.00
2023-02-05T00:10:52.651Z,103759.06
2023-02-05T00:12:54.704Z,103759.84
2023-02-05T00:14:56.772Z,103765.91
2023-02-05T00:16:58.786Z,103768.81
2023-02-05T00:19:01.323Z,103776.63
2023-02-05T00:21:04.653Z,103781.09
2023-02-05T00:23:07.141Z,103779.31
2023-02-05T00:25:09.298Z,103779.31
2023-02-05T00:27:11.523Z,103772.56
2023-02-05T00:29:13.671Z,103774.94
2023-02-05T00:31:20.526Z,103768.00
2023-02-05T00:33:24.304Z,103758.50
2023-02-05T00:35:26.527Z,103754.66
2023-02-05T00:37:28.623Z,103755.41
2023-02-05T00:39:30.892Z,103769.88
2023-02-05T00:41:33.172Z,103758.69
2023-02-05T00:43:35.292Z,103765.44
2023-02-05T00:45:37.457Z,103757.59
2023-02-05T00:47:39.556Z,103758.59
2023-02-05T00:49:41.700Z,103765.72
2023-02-05T00:51:43.994Z,103773.47
2023-02-05T00:53:46.214Z,103772.56
2023-02-05T00:55:48.628Z,103762.25
2023-02-05T00:57:50.704Z,103766.31
2023-02-05T00:59:53.556Z,103760.28
2023-02-05T01:01:55.756Z,103766.41
2023-02-05T01:03:58.010Z,103773.47
2023-02-05T01:06:03.018Z,103773.34
2023-02-05T01:08:06.375Z,103759.47
2023-02-05T01:10:08.996Z,103763.84
2023-02-05T01:12:11.423Z,103758.41
2023-02-05T01:14:13.584Z,103758.50
2023-02-05T01:16:15.954Z,103763.84
2023-02-05T01:18:18.237Z,103761.88
2023-02-05T01:20:20.712Z,103762.75
2023-02-05T01:22:22.840Z,103755.91
2023-02-05T01:24:25.568Z,103766.41
2023-02-05T01:26:27.824Z,103757.50
2023-02-05T01:28:29.961Z,103769.69
2023-02-05T01:30:31.983Z,103768.81
2023-02-05T01:32:34.142Z,103772.38
2023-02-05T01:34:36.417Z,103773.06
2023-02-05T01:36:38.327Z,103778.03
2023-02-05T01:38:40.324Z,103777.88
2023-02-05T01:40:42.372Z,103770.94
2023-02-05T01:42:44.522Z,103772.63
2023-02-05T01:45:09.444Z,103772.63
2023-02-05T01:47:11.980Z,103778.47
2023-02-05T01:49:21.805Z,103786.56
2023-02-05T01:51:25.314Z,103774.47
2023-02-05T01:53:32.142Z,103779.63
2023-02-05T01:55:38.817Z,103781.41
2023-02-05T01:57:41.218Z,103789.94
2023-02-05T01:59:44.538Z,103788.94
2023-02-05T02:01:47.023Z,103790.63
2023-02-05T02:03:50.609Z,103797.75
2023-02-05T02:05:52.729Z,103800.03
2023-02-05T02:07:54.915Z,103809.44
2023-02-05T02:09:57.040Z,103813.72
2023-02-05T02:11:59.921Z,103812.22
2023-02-05T02:14:06.669Z,103816.28
2023-02-05T02:16:09.466Z,103822.56
2023-02-05T02:18:15.788Z,103824.47
2023-02-05T02:20:23.013Z,103820.91
2023-02-05T02:22:31.114Z,103837.03
2023-02-05T02:24:36.574Z,103838.63
2023-02-05T02:26:43.078Z,103830.44
2023-02-05T02:28:51.181Z,103843.13
2023-02-05T02:30:56.695Z,103849.81
2023-02-05T02:33:02.105Z,103847.78
2023-02-05T02:35:21.225Z,103837.50
2023-02-05T02:37:30.337Z,103836.59
2023-02-05T02:39:38.203Z,103840.84
2023-02-05T02:41:50.267Z,103837.06
2023-02-05T02:43:56.850Z,103825.97
2023-02-05T02:46:04.548Z,103830.69
2023-02-05T02:48:07.638Z,103831.25
2023-02-05T02:50:15.562Z,103831.38
2023-02-05T02:52:21.163Z,103839.31
2023-02-05T02:54:24.531Z,103842.00
2023-02-05T02:56:28.688Z,103845.16
2023-02-05T02:58:35.783Z,103832.38
2023-02-05T03:00:40.431Z,103830.50
2023-02-05T03:02:45.635Z,103847.38
2023-02-05T03:04:54.228Z,103846.47
2023-02-05T03:07:04.447Z,103846.72
2023-02-05T03:09:18.239Z,103852.66
2023-02-05T03:11:20.195Z,103879.63
2023-02-05T03:13:22.260Z,103885.88
2023-02-05T03:15:24.221Z,103902.31
2023-02-05T03:17:26.895Z,103909.34
2023-02-05T03:19:29.800Z,103910.94
2023-02-05T03:21:39.864Z,103915.63
2023-02-05T03:23:41.949Z,103915.63
2023-02-05T03:25:43.945Z,103927.72
2023-02-05T03:27:46.332Z,103947.03
2023-02-05T03:29:49.490Z,103953.88
2023-02-05T03:31:55.979Z,103964.34
2023-02-05T03:34:08.859Z,103959.00
2023-02-05T03:36:14.262Z,103960.88
2023-02-05T03:38:20.645Z,103964.22
2023-02-05T03:40:28.677Z,103963.31
2023-02-05T03:42:38.461Z,103966.22
2023-02-05T03:44:43.925Z,103974.94
2023-02-05T03:47:00.006Z,103984.84
2023-02-05T03:49:05.422Z,103995.91
2023-02-05T03:51:13.562Z,103994.91
2023-02-05T03:53:19.215Z,104004.31
2023-02-05T03:55:29.436Z,104003.69
2023-02-05T03:57:38.251Z,104009.28
2023-02-05T03:59:40.847Z,104009.13
2023-02-05T04:01:44.924Z,104022.50
2023-02-05T04:03:47.263Z,104018.63
2023-02-05T04:05:49.271Z,104026.09
2023-02-05T04:07:52.104Z,104018.38
2023-02-05T04:09:54.032Z,104025.06
2023-02-05T04:11:55.936Z,104032.41
2023-02-05T04:13:57.852Z,104027.56
2023-02-05T04:15:59.759Z,104032.19
2023-02-05T04:18:01.949Z,104027.56
2023-02-05T04:20:04.928Z,104034.25
2023-02-05T04:22:06.915Z,104037.34
2023-02-05T04:24:08.918Z,104046.84
2023-02-05T04:26:10.900Z,104050.72
2023-02-05T04:28:13.186Z,104050.22
2023-02-05T04:30:15.261Z,104064.84
2023-02-05T04:32:17.308Z,104068.31
2023-02-05T04:34:19.217Z,104066.03
2023-02-05T04:36:21.217Z,104071.28
2023-02-05T04:38:23.122Z,104072.97
2023-02-05T04:40:25.092Z,104081.66
2023-02-05T04:42:27.008Z,104087.97
2023-02-05T04:44:28.999Z,104086.56
2023-02-05T04:46:30.969Z,104098.22
2023-02-05T04:48:33.408Z,104101.09
2023-02-05T04:50:35.474Z,104103.38
2023-02-05T04:52:37.460Z,104115.44
2023-02-05T04:54:39.457Z,104119.94
2023-02-05T04:56:41.367Z,104119.94
2023-02-05T04:58:44.190Z,104126.75
2023-02-05T05:00:46.191Z,104126.75
2023-02-05T05:02:48.207Z,104118.94
2023-02-05T05:04:50.141Z,104120.19
2023-02-05T05:06:52.068Z,104127.00
2023-02-05T05:08:54.515Z,104137.50
2023-02-05T05:10:56.420Z,104145.97
2023-02-05T05:12:58.469Z,104142.91
2023-02-05T05:15:00.413Z,104133.78
2023-02-05T05:17:02.413Z,104133.00
2023-02-05T05:19:04.721Z,104133.66
2023-02-05T05:21:07.577Z,104132.34
2023-02-05T05:23:09.485Z,104139.03
2023-02-05T05:25:11.432Z,104142.09
2023-02-05T05:27:13.324Z,104141.84
2023-02-05T05:29:15.334Z,104150.19
2023-02-05T05:31:19.648Z,104146.25
2023-02-05T05:33:21.734Z,104151.47
2023-02-05T05:35:23.648Z,104143.91
2023-02-05T05:37:25.685Z,104137.88
2023-02-05T05:39:30.909Z,104149.13
2023-02-05T05:41:35.853Z,104159.28
2023-02-05T05:43:40.967Z,104155.69
2023-02-05T05:45:42.898Z,104161.59
2023-02-05T05:47:44.909Z,104160.13
2023-02-05T05:49:47.497Z,104160.00
2023-02-05T05:51:49.459Z,104169.25
2023-02-05T05:53:51.755Z,104174.38
2023-02-05T05:55:53.644Z,104183.72
2023-02-05T05:57:55.652Z,104185.88
2023-02-05T05:59:57.697Z,104190.69
2023-02-05T06:02:02.019Z,104193.78
2023-02-05T06:04:04.425Z,104200.44
2023-02-05T06:06:08.401Z,104211.13
2023-02-05T06:08:10.325Z,104223.38
2023-02-05T06:10:13.131Z,104225.19
2023-02-05T06:12:16.001Z,104227.81
2023-02-05T06:14:18.029Z,104228.19
2023-02-05T06:16:20.039Z,104221.88
2023-02-05T06:18:23.916Z,104226.53
2023-02-05T06:20:27.573Z,104234.09
2023-02-05T06:22:29.490Z,104224.88
2023-02-05T06:24:31.436Z,104231.66
2023-02-05T06:26:33.371Z,104232.41
2023-02-05T06:28:35.293Z,104234.84
2023-02-05T06:30:37.382Z,104232.63
2023-02-05T06:32:39.430Z,104231.41
2023-02-05T06:34:41.673Z,104235.81
2023-02-05T06:36:43.692Z,104239.69
2023-02-05T06:38:45.822Z,104232.88
2023-02-05T06:40:48.793Z,104239.91
2023-02-05T06:42:52.030Z,104241.72
2023-02-05T06:44:53.925Z,104247.16
2023-02-05T06:46:56.183Z,104251.75
2023-02-05T06:48:58.116Z,104256.66
2023-02-05T06:51:00.051Z,104259.84
2023-02-05T06:53:02.075Z,104274.06
2023-02-05T06:55:04.876Z,104285.06
2023-02-05T06:57:06.822Z,104283.31
2023-02-05T06:59:08.896Z,104294.34
2023-02-05T07:01:10.786Z,104288.63
2023-02-05T07:03:12.769Z,104286.22
2023-02-05T07:05:14.695Z,104286.06
2023-02-05T07:07:17.330Z,104281.84
2023-02-05T07:09:19.246Z,104293.56
2023-02-05T07:11:21.785Z,104286.06
2023-02-05T07:13:23.705Z,104293.34
2023-02-05T07:15:25.604Z,104305.53
2023-02-05T07:17:27.547Z,104302.56
2023-02-05T07:19:29.481Z,104303.88
2023-02-05T07:21:31.508Z,104303.16
2023-02-05T07:23:33.828Z,104298.19
2023-02-05T07:25:38.028Z,104305.53
2023-02-05T07:27:39.943Z,104315.16
2023-02-05T07:29:41.860Z,104324.38
2023-02-05T07:31:44.032Z,104315.03
2023-02-05T07:33:47.878Z,104304.41
2023-02-05T07:35:49.825Z,104300.16
2023-02-05T07:37:51.764Z,104313.09
2023-02-05T07:39:53.766Z,104314.88
2023-02-05T07:41:55.737Z,104328.59
2023-02-05T07:43:57.706Z,104332.69
2023-02-05T07:46:02.614Z,104325.78
2023-02-05T07:48:04.658Z,104333.13
2023-02-05T07:50:07.014Z,104336.81
2023-02-05T07:52:09.268Z,104344.94
2023-02-05T07:54:14.660Z,104343.63
2023-02-05T07:56:17.388Z,104340.72
2023-02-05T07:58:19.872Z,104343.63
2023-02-05T08:00:22.087Z,104351.72
2023-02-05T08:02:25.204Z,104344.16
2023-02-05T08:04:27.193Z,104344.50
2023-02-05T08:06:29.152Z,104340.28
2023-02-05T08:08:31.134Z,104344.41
2023-02-05T08:10:33.680Z,104351.16
2023-02-05T08:12:35.607Z,104355.66
2023-02-05T08:14:37.520Z,104368.03
2023-02-05T08:16:39.449Z,104369.25
2023-02-05T08:18:41.711Z,104360.03
2023-02-05T08:20:44.747Z,104362.03
2023-02-05T08:22:46.746Z,104370.94
2023-02-05T08:24:48.776Z,104381.03
2023-02-05T08:26:50.798Z,104388.53
2023-02-05T08:28:52.736Z,104397.88
2023-02-05T08:30:56.760Z,104393.94
2023-02-05T08:32:58.766Z,104395.75
2023-02-05T08:35:00.675Z,104381.00
2023-02-05T08:37:02.604Z,104385.50
2023-02-05T08:39:04.931Z,104381.28
2023-02-05T08:41:12.828Z,104383.69
2023-02-05T08:43:14.903Z,104376.03
2023-02-05T08:45:16.947Z,104391.53
2023-02-05T08:47:21.219Z,104396.03
2023-02-05T08:49:23.463Z,104393.63
2023-02-05T08:51:25.570Z,104403.88
2023-02-05T08:53:27.811Z,104401.59
2023-02-05T08:55:29.908Z,104398.41
2023-02-05T08:57:31.950Z,104398.75
2023-02-05T08:59:34.174Z,104406.25
2023-02-05T09:01:38.326Z,104406.25
2023-02-05T09:03:40.420Z,104404.00
2023-02-05T09:05:42.422Z,104416.94
2023-02-05T09:07:44.391Z,104408.25
2023-02-05T09:09:46.453Z,104410.94
2023-02-05T09:11:49.246Z,104408.66
2023-02-05T09:13:51.402Z,104406.56
2023-02-05T09:15:53.344Z,104402.91
2023-02-05T09:17:55.419Z,104402.34
2023-02-05T09:19:57.485Z,104391.00
2023-02-05T09:21:59.440Z,104410.44
2023-02-05T09:24:01.701Z,104427.28
2023-02-05T09:26:05.116Z,104422.94
2023-02-05T09:28:09.554Z,104417.19
2023-02-05T09:30:12.737Z,104411.31
2023-02-05T09:32:14.710Z,104406.94
2023-02-05T09:34:16.652Z,104412.34
2023-02-05T09:36:22.186Z,104400.84
2023-02-05T09:38:24.194Z,104395.72
2023-02-05T09:40:32.684Z,104408.50
2023-02-05T09:42:40.878Z,104415.41
2023-02-05T09:44:49.124Z,104419.16
2023-02-05T09:47:05.945Z,104415.06
2023-02-05T09:49:14.062Z,104411.59
2023-02-05T09:51:20.685Z,104416.84
2023-02-05T09:53:23.328Z,104418.03
2023-02-05T09:55:29.750Z,104422.97
2023-02-05T09:57:35.934Z,104418.13
2023-02-05T09:59:44.444Z,104420.69
2023-02-05T10:01:50.812Z,104420.06
2023-02-05T10:03:59.327Z,104422.16
2023-02-05T10:06:02.992Z,104414.75
2023-02-05T10:08:08.401Z,104421.22
2023-02-05T10:10:18.373Z,104417.78
2023-02-05T10:12:29.075Z,104418.72
2023-02-05T10:14:37.194Z,104422.41
2023-02-05T10:16:48.892Z,104420.09
2023-02-05T10:18:54.359Z,104416.44
2023-02-05T10:21:02.660Z,104403.88
2023-02-05T10:23:10.797Z,104398.81
2023-02-05T10:25:26.705Z,104391.50
2023-02-05T10:27:41.887Z,104393.34
2023-02-05T10:29:53.356Z,104398.28
2023-02-05T10:32:06.081Z,104402.16
2023-02-05T10:34:14.332Z,104401.16
2023-02-05T10:36:22.253Z,104394.84
2023-02-05T10:38:25.873Z,104391.34
2023-02-05T10:40:35.001Z,104394.84
2023-02-05T10:42:44.072Z,104379.50
2023-02-05T10:44:50.819Z,104371.69
2023-02-05T10:46:56.908Z,104361.16
2023-02-05T10:49:10.582Z,104369.41
2023-02-05T10:51:19.675Z,104370.94
2023-02-05T10:53:24.128Z,104375.09
2023-02-05T10:55:26.277Z,104370.56
2023-02-05T10:57:34.421Z,104373.34
2023-02-05T10:59:50.205Z,104370.25
2023-02-05T11:01:53.245Z,104369.84
2023-02-05T11:03:58.925Z,104375.28
2023-02-05T11:06:02.267Z,104365.91
2023-02-05T11:08:05.268Z,104350.09
2023-02-05T11:10:17.689Z,104354.22
2023-02-05T11:12:25.939Z,104356.25
2023-02-05T11:14:34.223Z,104369.25
2023-02-05T11:16:41.101Z,104379.38
2023-02-05T11:18:55.124Z,104379.78
2023-02-05T11:21:01.325Z,104378.09
2023-02-05T11:23:09.514Z,104371.25
2023-02-05T11:25:17.767Z,104378.44
2023-02-05T11:27:26.090Z,104380.50
2023-02-05T11:29:28.098Z,104384.63
2023-02-05T11:31:35.131Z,104366.06
2023-02-05T11:33:37.258Z,104357.31
2023-02-05T11:35:39.262Z,104365.38
2023-02-05T11:37:41.386Z,104363.94
2023-02-05T11:39:45.899Z,104372.81
2023-02-05T11:41:56.793Z,104362.84
2023-02-05T11:44:01.265Z,104371.88
2023-02-05T11:46:08.844Z,104359.38
2023-02-05T11:48:22.148Z,104377.91
2023-02-05T11:50:27.678Z,104371.16
2023-02-05T11:52:33.286Z,104368.47
2023-02-05T11:54:36.925Z,104360.19
2023-02-05T11:56:39.504Z,104358.41
2023-02-05T11:58:41.769Z,104362.00
2023-02-05T12:00:50.411Z,104359.25
2023-02-05T12:03:04.451Z,104357.38
2023-02-05T12:05:07.401Z,104353.13
2023-02-05T12:07:15.701Z,104352.00
2023-02-05T12:09:23.090Z,104347.50
2023-02-05T12:11:31.578Z,104342.34
2023-02-05T12:13:45.568Z,104349.31
2023-02-05T12:15:54.044Z,104337.78
2023-02-05T12:18:00.831Z,104345.53
2023-02-05T12:20:09.293Z,104343.00
2023-02-05T12:22:17.718Z,104340.78
2023-02-05T12:24:26.067Z,104337.13
2023-02-05T12:26:35.165Z,104340.94
2023-02-05T12:28:44.831Z,104331.09
2023-02-05T12:30:53.358Z,104343.22
2023-02-05T12:33:10.075Z,104348.03
2023-02-05T12:35:24.146Z,104352.47
2023-02-05T12:37:32.650Z,104344.63
2023-02-05T12:39:38.223Z,104333.28
2023-02-05T12:41:46.747Z,104330.47
2023-02-05T12:43:50.818Z,104338.13
2023-02-05T12:46:10.993Z,104337.31
2023-02-05T12:48:17.851Z,104336.00
2023-02-05T12:50:26.231Z,104332.47
2023-02-05T12:52:37.805Z,104337.13
2023-02-05T12:54:43.333Z,104335.66
2023-02-05T12:56:50.203Z,104324.53
2023-02-05T12:59:00.153Z,104327.81
2023-02-05T13:01:09.144Z,104330.53
2023-02-05T13:03:22.385Z,104327.59
2023-02-05T13:05:30.689Z,104324.47
2023-02-05T13:07:35.866Z,104322.19
2023-02-05T13:09:46.386Z,104331.19
2023-02-05T13:11:56.947Z,104333.44
2023-02-05T13:14:06.797Z,104327.38
2023-02-05T13:16:14.540Z,104324.56
2023-02-05T13:18:24.516Z,104309.41
2023-02-05T13:20:40.191Z,104305.63
2023-02-05T13:22:55.848Z,104304.63
2023-02-05T13:25:06.384Z,104318.28
2023-02-05T13:27:19.927Z,104324.25
2023-02-05T13:29:25.518Z,104312.47
2023-02-05T13:31:33.631Z,104305.84
2023-02-05T13:33:35.905Z,104301.56
2023-02-05T13:35:44.292Z,104314.94
2023-02-05T13:37:47.499Z,104319.63
2023-02-05T13:40:04.871Z,104321.31
2023-02-05T13:42:22.079Z,104317.03
2023-02-05T13:44:32.815Z,104318.38
2023-02-05T13:46:37.722Z,104312.53
2023-02-05T13:48:45.960Z,104303.78
2023-02-05T13:50:54.304Z,104291.88
2023-02-05T13:53:03.405Z,104288.59
2023-02-05T13:55:11.762Z,104292.53
2023-02-05T13:57:17.445Z,104282.19
2023-02-05T13:59:26.698Z,104280.34
2023-02-05T14:01:35.033Z,104285.56
2023-02-05T14:03:41.531Z,104275.22
2023-02-05T14:05:43.982Z,104277.69
2023-02-05T14:07:49.926Z,104281.06
2023-02-05T14:09:56.710Z,104276.09
2023-02-05T14:12:01.904Z,104283.03
2023-02-05T14:14:10.424Z,104279.47
2023-02-05T14:16:18.755Z,104296.06
2023-02-05T14:18:31.807Z,104274.50
2023-02-05T14:20:37.456Z,104266.75
2023-02-05T14:22:43.884Z,104269.81
2023-02-05T14:24:49.272Z,104274.59
2023-02-05T14:26:57.910Z,104268.94
2023-02-05T14:29:00.112Z,104265.75
2023-02-05T14:31:04.093Z,104258.59
2023-02-05T14:33:10.772Z,104259.25
2023-02-05T14:35:19.234Z,104250.47
2023-02-05T14:37:27.593Z,104252.75
2023-02-05T14:39:33.890Z,104260.03
2023-02-05T14:41:39.635Z,104251.63
2023-02-05T14:43:44.475Z,104257.84
2023-02-05T14:45:50.742Z,104258.66
2023-02-05T14:47:53.593Z,104265.16
2023-02-05T14:50:03.355Z,104269.72
2023-02-05T14:52:19.848Z,104257.06
2023-02-05T14:54:24.788Z,104253.47
2023-02-05T14:56:34.594Z,104242.94
2023-02-05T14:58:44.492Z,104240.91
2023-02-05T15:00:46.716Z,104248.38
2023-02-05T15:03:00.783Z,104244.66
2023-02-05T15:05:05.799Z,104237.22
2023-02-05T15:07:15.665Z,104233.84
2023-02-05T15:09:26.326Z,104221.84
2023-02-05T15:11:33.047Z,104220.78
2023-02-05T15:13:35.990Z,104219.31
2023-02-05T15:15:38.967Z,104224.13
2023-02-05T15:17:50.071Z,104223.94
2023-02-05T15:19:56.202Z,104230.38
2023-02-05T15:22:00.973Z,104227.66
2023-02-05T15:24:06.780Z,104237.28
2023-02-05T15:26:23.209Z,104240.88
2023-02-05T15:28:31.944Z,104233.41
2023-02-05T15:30:48.462Z,104243.81
2023-02-05T15:32:58.173Z,104246.72
2023-02-05T15:35:06.744Z,104254.38
2023-02-05T15:37:10.820Z,104248.75
2023-02-05T15:39:20.315Z,104268.78
2023-02-05T15:41:25.498Z,104268.91
2023-02-05T15:43:28.212Z,104267.78
2023-02-05T15:45:34.259Z,104273.84
2023-02-05T15:47:36.819Z,104279.81
2023-02-05T15:49:44.182Z,104283.06
2023-02-05T15:51:48.140Z,104284.63
2023-02-05T15:53:51.939Z,104288.09
2023-02-05T15:55:54.225Z,104285.41
2023-02-05T15:58:02.715Z,104292.56
2023-02-05T16:00:10.218Z,104293.56
2023-02-05T16:02:18.273Z,104291.88
2023-02-05T16:04:23.854Z,104279.56
2023-02-05T16:06:28.114Z,104267.88
2023-02-05T16:08:30.232Z,104282.44
2023-02-05T16:10:34.862Z,104283.56
2023-02-05T16:12:37.310Z,104282.31
2023-02-05T16:14:39.495Z,104274.59
2023-02-05T16:16:47.730Z,104266.50
2023-02-05T16:18:57.337Z,104274.56
2023-02-05T16:21:05.832Z,104282.94
2023-02-05T16:23:24.076Z,104280.44
2023-02-05T16:25:33.942Z,104272.03
2023-02-05T16:27:43.546Z,104272.34
2023-02-05T16:29:53.001Z,104270.53
2023-02-05T16:31:59.875Z,104275.75
2023-02-05T16:34:22.805Z,104274.78
2023-02-05T16:36:46.420Z,104282.06
2023-02-05T16:39:39.296Z,104287.09
2023-02-05T16:41:44.084Z,104302.84
2023-02-05T16:44:06.144Z,104296.44
2023-02-05T16:46:08.895Z,104294.66
2023-02-05T16:48:20.954Z,104297.13
2023-02-05T16:50:29.067Z,104296.63
2023-02-05T16:52:32.967Z,104311.28
2023-02-05T16:54:38.813Z,104315.19
2023-02-05T16:56:47.657Z,104309.13
2023-02-05T16:58:54.272Z,104314.00
2023-02-05T17:01:00.775Z,104324.75
2023-02-05T17:03:16.504Z,104314.84
2023-02-05T17:05:21.976Z,104320.75
2023-02-05T17:07:24.282Z,104345.09
2023-02-05T17:09:32.233Z,104341.63
2023-02-05T17:11:38.711Z,104347.19
2023-02-05T17:13:43.015Z,104334.09
2023-02-05T17:15:44.941Z,104340.91
2023-02-05T17:17:52.783Z,104338.34
2023-02-05T17:20:01.021Z,104335.75
2023-02-05T17:22:09.281Z,104341.41
2023-02-05T17:24:11.191Z,104350.16
2023-02-05T17:26:13.161Z,104350.56
2023-02-05T17:28:18.676Z,104343.09
2023-02-05T17:30:21.430Z,104345.19
2023-02-05T17:32:24.122Z,104349.69
2023-02-05T17:34:26.012Z,104359.69
2023-02-05T17:36:27.922Z,104348.66
2023-02-05T17:38:29.774Z,104349.03
2023-02-05T17:40:32.729Z,104350.06
2023-02-05T17:42:34.897Z,104347.63
2023-02-05T17:44:37.092Z,104355.09
2023-02-05T17:46:40.086Z,104353.44
2023-02-05T17:48:44.825Z,104352.94
2023-02-05T17:50:50.081Z,104338.91
2023-02-05T17:52:52.342Z,104336.59
2023-02-05T17:54:54.282Z,104339.44
2023-02-05T17:56:59.222Z,104336.97
2023-02-05T17:59:01.369Z,104344.69
2023-02-05T18:01:03.491Z,104347.91
2023-02-05T18:03:05.861Z,104348.94
2023-02-05T18:05:08.506Z,104334.28
2023-02-05T18:07:20.211Z,104338.28
2023-02-05T18:09:22.146Z,104338.13
2023-02-05T18:11:24.051Z,104343.28
2023-02-05T18:13:25.942Z,104342.50
2023-02-05T18:15:29.019Z,104343.03
2023-02-05T18:17:30.990Z,104343.69
2023-02-05T18:19:34.807Z,104346.13
2023-02-05T18:21:36.721Z,104342.66
2023-02-05T18:23:38.641Z,104336.88
2023-02-05T18:25:41.281Z,104344.34
2023-02-05T18:27:45.055Z,104334.06
2023-02-05T18:29:46.942Z,104322.47
2023-02-05T18:31:49.415Z,104320.31
2023-02-05T18:33:52.805Z,104324.78
2023-02-05T18:35:59.201Z,104324.78
2023-02-05T18:38:01.036Z,104319.41
2023-02-05T18:40:03.167Z,104318.63
2023-02-05T18:42:05.664Z,104318.88
2023-02-05T18:44:07.535Z,104330.44
2023-02-05T18:46:11.256Z,104336.63
2023-02-05T18:48:13.222Z,104360.13
2023-02-05T18:50:16.861Z,104361.13
2023-02-05T18:52:18.960Z,104357.53
2023-02-05T18:54:21.103Z,104340.84
2023-02-05T18:56:25.842Z,104333.50
2023-02-05T18:58:27.825Z,104339.81
2023-02-05T19:00:29.965Z,104330.28
2023-02-05T19:02:34.252Z,104332.75
2023-02-05T19:04:37.040Z,104349.56
2023-02-05T19:06:43.712Z,104348.81
2023-02-05T19:08:45.636Z,104350.47
2023-02-05T19:10:47.581Z,104350.81
2023-02-05T19:12:50.904Z,104357.16
2023-02-05T19:14:52.876Z,104347.47
2023-02-05T19:16:54.832Z,104350.22
2023-02-05T19:18:57.136Z,104353.50
2023-02-05T19:21:04.317Z,104363.19
2023-02-05T19:23:06.176Z,104364.53
2023-02-05T19:25:08.363Z,104368.31
2023-02-05T19:27:10.353Z,104375.91
2023-02-05T19:29:15.758Z,104372.25
2023-02-05T19:31:18.188Z,104365.31
2023-02-05T19:33:20.227Z,104360.81
2023-02-05T19:35:22.100Z,104365.84
2023-02-05T19:37:24.064Z,104367.00
2023-02-05T19:39:26.230Z,104374.03
2023-02-05T19:41:28.962Z,104371.75
2023-02-05T19:43:30.872Z,104375.09
2023-02-05T19:45:37.515Z,104370.56
2023-02-05T19:47:39.404Z,104367.59
2023-02-05T19:49:41.558Z,104359.53
2023-02-05T19:51:46.872Z,104369.91
2023-02-05T19:53:48.878Z,104359.66
2023-02-05T19:55:50.716Z,104358.88
2023-02-05T19:57:52.594Z,104354.38
2023-02-05T19:59:54.532Z,104363.09
2023-02-05T20:01:56.722Z,104363.56
2023-02-05T20:04:01.047Z,104372.34
2023-02-05T20:06:05.367Z,104387.31
2023-02-05T20:08:07.394Z,104386.28
2023-02-05T20:10:09.780Z,104385.25
2023-02-05T20:12:13.084Z,104383.94
2023-02-05T20:14:17.054Z,104382.53
2023-02-05T20:16:22.909Z,104386.97
2023-02-05T20:18:25.319Z,104383.38
2023-02-05T20:20:33.616Z,104382.47
2023-02-05T20:22:36.216Z,104376.41
2023-02-05T20:24:38.075Z,104381.03
2023-02-05T20:26:40.060Z,104380.13
2023-02-05T20:28:45.521Z,104384.09
2023-02-05T20:30:50.403Z,104386.03
2023-02-05T20:32:52.221Z,104386.03
2023-02-05T20:34:54.403Z,104379.34
2023-02-05T20:37:00.113Z,104378.06
2023-02-05T20:39:06.541Z,104365.97
2023-02-05T20:41:13.572Z,104360.25
2023-02-05T20:43:15.369Z,104374.94
2023-02-05T20:45:17.268Z,104366.34
2023-02-05T20:47:19.105Z,104363.00
2023-02-05T20:49:21.722Z,104349.50
2023-02-05T20:51:24.692Z,104346.53
2023-02-05T20:53:26.941Z,104345.50
2023-02-05T20:55:29.215Z,104343.56
2023-02-05T20:57:33.200Z,104356.25
2023-02-05T20:59:36.603Z,104351.41
2023-02-05T21:01:40.071Z,104353.28
2023-02-05T21:03:45.860Z,104359.03
2023-02-05T21:05:48.172Z,104346.44
2023-02-05T21:07:49.994Z,104348.88
2023-02-05T21:09:53.856Z,104339.38
2023-02-05T21:11:56.002Z,104332.56
2023-02-05T21:13:58.932Z,104325.72
2023-02-05T21:16:01.825Z,104332.28
2023-02-05T21:18:03.945Z,104337.97
2023-02-05T21:20:06.588Z,104329.13
2023-02-05T21:22:08.874Z,104323.22
2023-02-05T21:24:16.068Z,104317.66
2023-02-05T21:26:22.954Z,104326.13
2023-02-05T21:28:25.020Z,104334.03
2023-02-05T21:30:26.866Z,104329.31
2023-02-05T21:32:33.190Z,104323.97
2023-02-05T21:34:35.216Z,104324.88
2023-02-05T21:36:37.711Z,104326.94
2023-02-05T21:38:43.330Z,104327.56
2023-02-05T21:40:45.416Z,104334.78
2023-02-05T21:42:47.327Z,104337.47
2023-02-05T21:44:51.023Z,104330.41
2023-02-05T21:46:54.611Z,104321.81
2023-02-05T21:48:58.351Z,104321.19
2023-02-05T21:51:00.464Z,104319.81
2023-02-05T21:53:02.279Z,104312.38
2023-02-05T21:55:04.401Z,104314.44
2023-02-05T21:57:09.601Z,104313.84
2023-02-05T21:59:12.978Z,104304.19
2023-02-05T22:01:17.024Z,104309.31
2023-02-05T22:03:18.823Z,104312.94
2023-02-05T22:05:20.674Z,104305.97
2023-02-05T22:07:22.939Z,104316.22
2023-02-05T22:09:24.781Z,104309.94
2023-02-05T22:11:28.939Z,104316.09
2023-02-05T22:13:33.344Z,104314.13
2023-02-05T22:15:35.495Z,104314.63
2023-02-05T22:17:37.655Z,104314.00
2023-02-05T22:19:39.548Z,104311.56
2023-02-05T22:21:42.945Z,104318.72
2023-02-05T22:23:49.122Z,104314.97
2023-02-05T22:25:51.420Z,104309.84
2023-02-05T22:27:53.208Z,104318.50
2023-02-05T22:29:58.017Z,104325.59
2023-02-05T22:31:59.884Z,104326.50
2023-02-05T22:34:01.740Z,104327.25
2023-02-05T22:36:06.042Z,104334.78
2023-02-05T22:38:07.854Z,104325.41
2023-02-05T22:40:10.335Z,104328.75
2023-02-05T22:42:12.572Z,104336.19
2023-02-05T22:44:14.515Z,104344.69
2023-02-05T22:46:20.839Z,104334.94
2023-02-05T22:48:22.665Z,104332.38
2023-02-05T22:50:24.420Z,104328.00
2023-02-05T22:52:26.294Z,104324.88
2023-02-05T22:54:28.231Z,104321.28
2023-02-05T22:56:31.148Z,104324.25
2023-02-05T22:58:33.855Z,104326.69
2023-02-05T23:00:36.135Z,104316.22
2023-02-05T23:02:40.829Z,104316.38
2023-02-05T23:04:42.738Z,104311.63
2023-02-05T23:06:45.303Z,104313.59
2023-02-05T23:08:51.556Z,104311.94
2023-02-05T23:10:55.501Z,104315.41
2023-02-05T23:12:57.366Z,104309.06
2023-02-05T23:14:59.242Z,104319.00
2023-02-05T23:17:01.120Z,104326.69
2023-02-05T23:19:07.694Z,104328.63
2023-02-05T23:21:13.841Z,104330.00
2023-02-05T23:23:15.657Z,104325.78
2023-02-05T23:25:17.884Z,104321.69
2023-02-05T23:27:19.838Z,104319.63
2023-02-05T23:29:21.693Z,104326.13
2023-02-05T23:31:26.099Z,104329.31
2023-02-05T23:33:28.457Z,104324.94
2023-02-05T23:35:30.309Z,104321.34
2023-02-05T23:37:32.302Z,104307.66
2023-02-05T23:39:34.096Z,104309.78
2023-02-05T23:41:36.670Z,104310.66
2023-02-05T23:43:39.392Z,104306.44
2023-02-05T23:45:42.618Z,104313.41
2023-02-05T23:47:44.964Z,104312.78
2023-02-05T23:49:46.860Z,104305.72
2023-02-05T23:51:50.145Z,104304.72